createdAt,value
2022-11-28T00:01:26.180Z,102244.81
2022-11-28T00:06:23.476Z,102178.13
2022-11-28T00:11:20.846Z,102205.00
2022-11-28T00:16:20.748Z,102234.50
2022-11-28T00:21:19.259Z,102273.38
2022-11-28T00:26:19.698Z,102229.97
2022-11-28T00:31:18.584Z,102262.72
2022-11-28T00:36:16.108Z,102221.25
2022-11-28T00:41:15.410Z,102268.16
2022-11-28T00:46:13.925Z,102261.94
2022-11-28T00:51:12.892Z,102215.97
2022-11-28T00:56:11.118Z,102257.56
2022-11-28T01:01:10.965Z,102193.56
2022-11-28T01:06:09.036Z,102222.22
2022-11-28T01:11:12.075Z,102192.75
2022-11-28T01:16:10.801Z,102235.25
2022-11-28T01:21:08.392Z,102200.56
2022-11-28T01:26:08.289Z,102164.25
2022-11-28T01:31:08.170Z,102130.44
2022-11-28T01:36:06.874Z,102226.50
2022-11-28T01:41:04.645Z,102189.28
2022-11-28T01:46:02.102Z,102230.06
2022-11-28T01:51:05.998Z,102182.38
2022-11-28T01:56:08.914Z,102172.00
2022-11-28T02:01:07.318Z,102210.13
2022-11-28T02:06:05.224Z,102108.03
2022-11-28T02:11:32.757Z,102172.03
2022-11-28T02:16:45.934Z,102197.16
2022-11-28T02:21:55.192Z,102196.38
2022-11-28T02:27:21.762Z,102205.91
2022-11-28T02:32:37.064Z,102150.53
2022-11-28T02:37:42.901Z,102212.03
2022-11-28T02:42:50.035Z,102193.03
2022-11-28T02:47:54.918Z,102227.69
2022-11-28T02:52:56.125Z,102205.16
2022-11-28T02:57:54.853Z,102219.00
2022-11-28T03:03:04.020Z,102168.78
2022-11-28T03:08:23.757Z,102217.34
2022-11-28T03:13:27.023Z,102220.81
2022-11-28T03:18:31.862Z,102206.09
2022-11-28T03:23:38.037Z,102164.56
2022-11-28T03:28:43.421Z,102226.91
2022-11-28T03:33:44.567Z,102220.81
2022-11-28T03:38:48.074Z,102225.97
2022-11-28T03:43:49.588Z,102221.63
2022-11-28T03:48:50.986Z,102221.63
2022-11-28T03:53:54.597Z,102223.34
2022-11-28T03:58:59.422Z,102190.44
2022-11-28T04:04:08.395Z,102208.59
2022-11-28T04:09:14.683Z,102219.00
2022-11-28T04:14:21.270Z,102220.81
2022-11-28T04:19:31.017Z,102206.19
2022-11-28T04:24:33.301Z,102227.00
2022-11-28T04:29:35.703Z,102227.84
2022-11-28T04:34:36.125Z,102181.13
2022-11-28T04:39:37.459Z,102232.19
2022-11-28T04:44:39.501Z,102246.03
2022-11-28T04:49:37.875Z,102192.28
2022-11-28T04:54:45.170Z,102201.81
2022-11-28T04:59:43.872Z,102251.13
2022-11-28T05:04:44.316Z,102135.91
2022-11-28T05:09:41.609Z,102198.28
2022-11-28T05:14:40.487Z,102218.19
2022-11-28T05:19:37.541Z,102265.03
2022-11-28T05:24:35.479Z,102261.56
2022-11-28T05:29:32.747Z,102218.16
2022-11-28T05:34:30.516Z,102261.53
2022-11-28T05:39:27.793Z,102207.00
2022-11-28T05:44:27.153Z,102276.28
2022-11-28T05:49:33.390Z,102252.84
2022-11-28T05:54:31.083Z,102262.38
2022-11-28T05:59:29.309Z,102241.63
2022-11-28T06:04:26.533Z,102173.19
2022-11-28T06:09:32.490Z,102237.34
2022-11-28T06:14:33.281Z,102230.31
2022-11-28T06:19:30.590Z,102249.28
2022-11-28T06:24:28.068Z,102226.66
2022-11-28T06:29:28.690Z,102255.19
2022-11-28T06:34:27.024Z,102262.25
2022-11-28T06:39:24.041Z,102300.44
2022-11-28T06:44:23.139Z,102239.75
2022-11-28T06:49:20.260Z,102185.25
2022-11-28T06:54:49.866Z,102275.34
2022-11-28T06:59:48.445Z,102165.38
2022-11-28T07:04:45.492Z,102271.81
2022-11-28T07:09:43.257Z,102265.66
2022-11-28T07:14:40.402Z,102201.50
2022-11-28T07:19:37.489Z,102215.28
2022-11-28T07:24:34.288Z,102267.25
2022-11-28T07:29:35.854Z,102171.19
2022-11-28T07:34:32.836Z,102236.19
2022-11-28T07:39:29.900Z,102263.06
2022-11-28T07:44:27.119Z,102190.25
2022-11-28T07:49:24.972Z,102255.16
2022-11-28T07:54:25.095Z,102224.66
2022-11-28T07:59:22.265Z,102172.50
2022-11-28T08:04:19.695Z,102162.97
2022-11-28T08:09:17.622Z,102221.75
2022-11-28T08:14:23.555Z,102133.47
2022-11-28T08:19:24.589Z,102136.84
2022-11-28T08:24:22.491Z,102184.28
2022-11-28T08:29:21.738Z,102231.84
2022-11-28T08:34:18.767Z,102144.47
2022-11-28T08:39:24.512Z,102214.63
2022-11-28T08:44:23.239Z,102068.53
2022-11-28T08:49:30.200Z,102163.72
2022-11-28T08:54:27.300Z,102180.06
2022-11-28T08:59:30.408Z,102223.28
2022-11-28T09:04:28.782Z,102171.22
2022-11-28T09:09:30.179Z,102095.03
2022-11-28T09:14:34.156Z,102080.38
2022-11-28T09:19:31.324Z,102057.03
2022-11-28T09:24:28.399Z,102174.41
2022-11-28T09:29:35.021Z,102182.91
2022-11-28T09:34:32.949Z,102162.94
2022-11-28T09:39:43.954Z,102098.00
2022-11-28T09:44:50.894Z,102168.84
2022-11-28T09:49:52.474Z,102114.19
2022-11-28T09:54:57.388Z,102053.69
2022-11-28T09:59:54.444Z,102121.84
2022-11-28T10:05:05.714Z,102030.94
2022-11-28T10:10:15.752Z,102122.25
2022-11-28T10:15:30.805Z,102120.50
2022-11-28T10:20:32.844Z,102100.44
2022-11-28T10:25:35.192Z,102110.00
2022-11-28T10:30:38.702Z,102110.88
2022-11-28T10:35:42.833Z,102053.72
2022-11-28T10:40:46.539Z,102084.63
2022-11-28T10:45:53.888Z,102084.50
2022-11-28T10:51:03.565Z,102051.63
2022-11-28T10:56:11.562Z,102023.19
2022-11-28T11:01:09.665Z,102081.84
2022-11-28T11:06:07.852Z,102084.41
2022-11-28T11:11:13.458Z,102028.13
2022-11-28T11:16:11.650Z,102074.50
2022-11-28T11:21:15.519Z,102050.34
2022-11-28T11:26:23.799Z,101999.59
2022-11-28T11:31:27.404Z,102027.38
2022-11-28T11:36:28.662Z,102038.75
2022-11-28T11:41:33.153Z,101949.81
2022-11-28T11:46:45.746Z,102016.34
2022-11-28T11:51:43.806Z,101987.91
2022-11-28T11:56:44.141Z,102039.59
2022-11-28T12:01:45.199Z,102030.09
2022-11-28T12:06:50.373Z,102012.03
2022-11-28T12:11:52.029Z,102053.59
2022-11-28T12:16:57.357Z,102043.19
2022-11-28T12:22:11.586Z,102026.00
2022-11-28T12:27:21.808Z,101975.03
2022-11-28T12:32:31.369Z,102035.25
2022-11-28T12:38:09.439Z,102020.63
2022-11-28T12:43:18.338Z,102019.56
2022-11-28T12:48:32.540Z,102026.50
2022-11-28T12:54:04.569Z,101986.06
2022-11-28T12:59:08.563Z,102006.69
2022-11-28T13:04:21.357Z,102014.44
2022-11-28T13:09:30.347Z,102013.63
2022-11-28T13:14:38.987Z,101913.53
2022-11-28T13:19:48.255Z,102044.72
2022-11-28T13:24:55.938Z,102012.03
2022-11-28T13:30:05.813Z,102056.91
2022-11-28T13:35:04.232Z,102067.38
2022-11-28T13:40:13.184Z,102012.03
2022-11-28T13:45:25.178Z,102002.56
2022-11-28T13:50:36.892Z,102012.78
2022-11-28T13:55:46.086Z,101984.44
2022-11-28T14:00:57.610Z,102054.50
2022-11-28T14:05:58.600Z,102025.34
2022-11-28T14:11:40.006Z,102021.06
2022-11-28T14:16:54.901Z,102032.41
2022-11-28T14:22:04.448Z,101981.53
2022-11-28T14:27:05.519Z,102014.50
2022-11-28T14:37:48.737Z,101998.16
2022-11-28T14:43:02.519Z,102034.47
2022-11-28T14:48:18.531Z,101968.00
2022-11-28T14:53:47.432Z,101956.84
2022-11-28T14:58:47.132Z,102012.06
2022-11-28T15:03:54.488Z,102060.38
2022-11-28T15:09:02.953Z,101978.34
2022-11-28T15:14:15.577Z,101961.03
2022-11-28T15:19:20.929Z,101988.84
2022-11-28T15:24:24.601Z,102048.44
2022-11-28T15:29:27.406Z,102060.63
2022-11-28T15:34:34.421Z,102001.19
2022-11-28T15:39:39.302Z,102034.22
2022-11-28T15:44:42.676Z,102042.94
2022-11-28T15:49:45.244Z,102058.56
2022-11-28T15:54:43.658Z,102056.03
2022-11-28T15:59:46.829Z,102006.13
2022-11-28T16:04:48.039Z,101948.25
2022-11-28T16:10:31.069Z,102034.59
2022-11-28T16:21:46.328Z,102066.13
2022-11-28T16:27:22.795Z,101961.50
2022-11-28T16:32:32.076Z,102023.00
2022-11-28T16:37:34.454Z,102013.56
2022-11-28T16:42:34.074Z,102005.84
2022-11-28T16:47:32.654Z,101937.53
2022-11-28T16:52:43.180Z,102066.47
2022-11-28T16:57:45.905Z,101946.28
2022-11-28T17:03:03.899Z,101961.03
2022-11-28T17:08:02.588Z,101939.41
2022-11-28T17:13:00.244Z,102058.72
2022-11-28T17:17:58.747Z,101935.94
2022-11-28T17:22:59.030Z,102018.09
2022-11-28T17:27:56.562Z,102057.06
2022-11-28T17:32:54.389Z,102057.84
2022-11-28T17:37:53.268Z,101974.84
2022-11-28T17:42:50.568Z,102070.09
2022-11-28T17:47:49.912Z,102056.22
2022-11-28T17:52:47.349Z,102014.69
2022-11-28T17:57:56.195Z,102005.16
2022-11-28T18:02:56.593Z,102045.78
2022-11-28T18:07:58.032Z,102057.94
2022-11-28T18:12:56.367Z,101972.28
2022-11-28T18:17:54.842Z,101970.59
2022-11-28T18:22:52.494Z,102039.94
2022-11-28T18:27:58.262Z,102034.75
2022-11-28T18:33:10.924Z,101980.25
2022-11-28T18:38:17.436Z,102020.91
2022-11-28T18:43:15.394Z,102021.75
2022-11-28T18:48:14.187Z,101998.41
2022-11-28T18:53:11.876Z,101905.81
2022-11-28T18:58:34.476Z,101984.53
2022-11-28T19:03:38.201Z,102029.63
2022-11-28T19:08:36.769Z,102044.31
2022-11-28T19:13:55.315Z,102053.84
2022-11-28T19:24:07.608Z,102004.50
2022-11-28T19:29:06.129Z,102015.69
2022-11-28T19:44:16.524Z,102017.34
2022-11-28T19:49:18.927Z,102040.75
2022-11-28T19:54:19.362Z,101992.34
2022-11-28T19:59:18.092Z,102028.66
2022-11-28T20:04:16.330Z,102030.44
2022-11-28T20:09:14.508Z,101982.88
2022-11-28T20:14:15.928Z,102039.13
2022-11-28T20:19:15.162Z,101963.00
2022-11-28T20:24:18.997Z,101919.75
2022-11-28T20:29:19.250Z,102047.84
2022-11-28T20:34:20.685Z,101993.28
2022-11-28T20:39:21.282Z,102010.59
2022-11-28T20:44:18.888Z,102043.50
2022-11-28T20:49:16.766Z,101992.44
2022-11-28T20:54:15.160Z,102015.81
2022-11-28T20:59:15.629Z,102055.66
2022-11-28T21:04:15.031Z,102049.59
2022-11-28T21:09:16.243Z,102050.44
2022-11-28T21:14:14.760Z,102004.50
2022-11-28T21:19:13.919Z,101988.06
2022-11-28T21:24:15.418Z,102026.13
2022-11-28T21:29:14.689Z,102028.75
2022-11-28T21:34:14.193Z,101988.03
2022-11-28T21:39:13.519Z,101992.34
2022-11-28T21:44:14.491Z,102038.25
2022-11-28T21:49:33.359Z,102040.78
2022-11-28T21:54:33.513Z,101933.50
2022-11-28T21:59:33.678Z,101931.81
2022-11-28T22:04:50.892Z,101991.47
2022-11-28T22:10:39.334Z,101991.47
2022-11-28T22:15:44.438Z,101904.97
2022-11-28T22:21:06.536Z,101994.13
2022-11-28T22:26:13.336Z,101998.44
2022-11-28T22:31:16.819Z,102038.28
2022-11-28T22:36:17.826Z,101980.31
2022-11-28T22:41:22.005Z,101969.84
2022-11-28T22:46:24.350Z,101987.16
2022-11-28T22:51:24.507Z,102001.03
2022-11-28T22:56:22.947Z,101983.75
2022-11-28T23:01:25.288Z,101905.91
2022-11-28T23:06:26.754Z,102014.03
2022-11-28T23:11:27.515Z,101886.00
2022-11-28T23:16:30.292Z,101982.00
2022-11-28T23:21:33.113Z,101955.22
2022-11-28T23:26:31.378Z,102002.84
2022-11-28T23:31:30.210Z,101880.78
2022-11-28T23:36:29.619Z,101885.97
2022-11-28T23:41:29.974Z,101933.53
2022-11-28T23:46:28.561Z,101998.47
2022-11-28T23:51:26.630Z,101972.53
2022-11-28T23:56:25.983Z,101931.81
